Pine River, Wisconsin
Current Conditions -  °F | °C
As of 3:56 PM on Friday 24 Oct 2014 (Local Time) from KY50 Reporting Station
Overcast Overcast  
Wind Chill: 58°   Ceiling: 100
Heat Index: 58°   Visibility: 10mi
Dew Point: 51°   Wind: 7mph
Humidity: 77%   Direction: 150°SSE
Pressure: 29.91"   Gusts: NA
Location:  44.15°N, 89.08°W
Report Text: KY50 242056Z AUTO 15006KT 10SM OVC001 14/11 A2991 RMK AO2 TSNO 56027 T01440105 SLP128
Loading
Personal Weather Stations






























Interactive Weather Map
Tropical Storm Tracking
New forecast layout! Learn more

10-Day Weather Forecast

Advertisements
Track Severe Weather on mobile